Flight Track Log - Related Links

Times and Time Zones

All times are in EDT time to prevent confusion due to time zone crossing. See the AAL1326 flight status page for this flight to view local times or setup timezone preferences in your user account.

Time Position Orientation Groundspeed Altitude Reporting Facility
EDT Latitude Longitude Course Direction KTS MPH feet Rate Location/Type
Mon 06:55:43 PM 41.9430 -87.9040 177° South 164 189 1,500  Level FlightAware ADS-B
Mon 06:55:48 PM 41.9420 -87.9040 180° South 164 189 1,500 1,800 Level FlightAware ADS-B
Mon 06:56:13 PM 41.9200 -87.8940 161° South 187 215 2,400 2,040 Climbing FlightAware ADS-B
Mon 06:56:38 PM 41.8990 -87.8820 157° South 217 250 3,200 2,073 Climbing FlightAware ADS-B
Mon 06:57:08 PM 41.8680 -87.8620 154° Southeast 246 283 4,300 2,400 Climbing FlightAware ADS-B
Mon 06:57:33 PM 41.8410 -87.8530 166° South 252 290 5,400 2,945 Climbing FlightAware ADS-B
Mon 06:58:03 PM 41.8040 -87.8430 169° South 274 315 7,000 3,400 Climbing FlightAware ADS-B
Mon 06:58:33 PM 41.7650 -87.8310 167° South 293 337 8,800 3,600 Climbing FlightAware ADS-B
Mon 06:59:13 PM 41.7120 -87.8140 167° South 311 358 11,200 3,953 Climbing FlightAware ADS-B
Mon 06:59:58 PM 41.6470 -87.7940 167° South 317 365 14,400 3,035 Climbing FlightAware ADS-B
Mon 07:00:38 PM 41.5840 -87.7760 168° South 372 428 15,500 1,800 Climbing FlightAware ADS-B
Mon 07:01:18 PM 41.5170 -87.7560 167° South 409 471 16,800 2,400 Climbing FlightAware ADS-B
Mon 07:02:03 PM 41.4300 -87.7300 167° South 427 491 18,900 3,106 Climbing FlightAware ADS-B
Mon 07:02:43 PM 41.3510 -87.7250 177° South 419 482 21,200 3,975 Climbing FlightAware ADS-B
Mon 07:03:23 PM 41.2760 -87.7250 180° South 396 456 24,200 3,240 Climbing FlightAware ADS-B
Mon 07:04:23 PM 41.1630 -87.7210 178° South 416 479 26,600 2,340 Climbing FlightAware ADS-B
Mon 07:05:03 PM 41.0850 -87.7100 174° South 426 490 28,100 1,950 Climbing FlightAware ADS-B
Mon 07:05:43 PM 41.0070 -87.6990 174° South 438 504 29,200 1,412 Climbing FlightAware ADS-B
Mon 07:06:28 PM 40.9160 -87.6870 174° South 458 527 30,100 1,482 Climbing FlightAware ADS-B
Mon 07:07:08 PM 40.8290 -87.6750 174° South 464 534 31,300 1,835 Climbing FlightAware ADS-B
Mon 07:07:53 PM 40.7330 -87.6620 174° South 465 535 32,700 1,906 Climbing FlightAware ADS-B
Mon 07:08:33 PM 40.6460 -87.6510 175° South 463 533 34,000 2,400 Climbing FlightAware ADS-B
Mon 07:09:13 PM 40.5610 -87.6390 174° South 443 510 35,900 2,118 Climbing FlightAware ADS-B
Mon 07:09:58 PM 40.4760 -87.6280 174° South 440 506 37,000 776 Climbing FlightAware ADS-B
Mon 07:10:38 PM 40.3900 -87.6170 174° South 444 511 37,000  Level FlightAware ADS-B
Mon 07:11:23 PM 40.2980 -87.5930 169° South 467 537 37,000 494 Level FlightAware ADS-B
Mon 07:12:03 PM 40.2180 -87.5450 155° Southeast 474 545 37,700 1,137 Climbing FlightAware ADS-B
Mon 07:12:58 PM 40.1160 -87.4790 154° Southeast 463 533 38,800 1,440 Climbing FlightAware ADS-B
Mon 07:13:43 PM 40.0260 -87.4230 155° Southeast 461 531 40,100 988 Climbing FlightAware ADS-B
Mon 07:14:23 PM 39.9470 -87.3730 154° Southeast 475 547 40,200 164 Climbing FlightAware ADS-B
Mon 07:15:33 PM 39.8160 -87.2830 152° Southeast 488 562 40,400 417 Climbing FlightAware ADS-B
Mon 07:16:18 PM 39.7200 -87.2190 153° Southeast 482 555 41,000 424 Climbing FlightAware ADS-B
Mon 07:16:58 PM 39.6390 -87.1660 153° Southeast 477 549 41,000  Level FlightAware ADS-B
Mon 07:17:38 PM 39.5620 -87.1140 152° Southeast 475 547 41,000  Level FlightAware ADS-B
Mon 07:18:23 PM 39.4750 -87.0560 153° Southeast 477 549 41,000  Level FlightAware ADS-B
Mon 07:19:03 PM 39.3950 -87.0030 153° Southeast 479 551 41,000  Level FlightAware ADS-B
Mon 07:19:43 PM 39.3160 -86.9510 153° Southeast 482 555 41,000  Level FlightAware ADS-B
Mon 07:20:28 PM 39.2250 -86.8920 153° Southeast 484 557 41,000  Level FlightAware ADS-B
Mon 07:21:13 PM 39.1370 -86.8340 153° Southeast 486 559 41,000  Level FlightAware ADS-B
Mon 07:21:53 PM 39.0560 -86.7780 152° Southeast 489 563 41,000  Level FlightAware ADS-B
Mon 07:22:38 PM 38.9640 -86.7260 156° South 478 550 41,000  Level FlightAware ADS-B
Mon 07:23:18 PM 38.8800 -86.6870 160° South 479 551 41,000  Level FlightAware ADS-B
Mon 07:23:58 PM 38.7950 -86.6470 160° South 476 548 41,000  Level FlightAware ADS-B
Mon 07:24:38 PM 38.7120 -86.6090 160° South 473 544 41,000  Level FlightAware ADS-B
Mon 07:25:23 PM 38.6240 -86.5680 160° South 470 541 41,000  Level FlightAware ADS-B
Mon 07:26:08 PM 38.5300 -86.5240 160° South 469 540 41,000  Level FlightAware ADS-B
Mon 07:26:48 PM 38.4480 -86.4860 160° South 469 540 41,000  Level FlightAware ADS-B
Mon 07:27:28 PM 38.3650 -86.4480 160° South 468 539 41,000  Level FlightAware ADS-B
Mon 07:28:13 PM 38.2770 -86.4070 160° South 466 536 41,000  Level FlightAware ADS-B
Mon 07:28:53 PM 38.1960 -86.3700 160° South 465 535 41,000  Level FlightAware ADS-B
Mon 07:29:38 PM 38.1020 -86.3270 160° South 466 536 41,000  Level FlightAware ADS-B
Mon 07:30:18 PM 38.0230 -86.2900 160° South 466 536 41,000  Level FlightAware ADS-B
Mon 07:31:03 PM 37.9320 -86.2490 160° South 468 539 41,000  Level FlightAware ADS-B
Mon 07:31:43 PM 37.8510 -86.2120 160° South 470 541 41,000  Level FlightAware ADS-B
Mon 07:32:23 PM 37.7690 -86.1750 160° South 469 540 41,000  Level FlightAware ADS-B
Mon 07:32:56 PM 37.6969 -86.1424 160° South 471 542 41,000  Level FlightAware ADS-B
Mon 07:33:27 PM 37.6338 -86.1139 160° South 471 542 41,000  Level FlightAware ADS-B
Mon 07:33:57 PM 37.5718 -86.0859 160° South 472 543 41,000  Level FlightAware ADS-B
Mon 07:34:27 PM 37.5092 -86.0577 160° South 472 543 41,000  Level FlightAware ADS-B
Mon 07:35:00 PM 37.4428 -86.0280 160° South 471 542 41,000  Level FlightAware ADS-B
Mon 07:35:32 PM 37.3763 -85.9983 160° South 470 541 41,000  Level FlightAware ADS-B
Mon 07:36:38 PM 37.2470 -85.9400 160° South 466 536 41,000  Level FlightAware ADS-B
Mon 07:37:18 PM 37.1680 -85.9050 161° South 464 534 41,000  Level FlightAware ADS-B
Mon 07:37:38 PM 37.1214 -85.8842 160° South 464 534 41,000  Level FlightAware ADS-B
Mon 07:38:08 PM 37.0609 -85.8573 160° South 462 532 41,000  Level FlightAware ADS-B
Mon 07:38:43 PM 36.9930 -85.8270 160° South 459 528 41,000  Level FlightAware ADS-B
Mon 07:39:23 PM 36.9220 -85.7950 160° South 459 528 41,000  Level FlightAware ADS-B
Mon 07:40:08 PM 36.8270 -85.7530 161° South 41,000  Level FlightAware ADS-B
Mon 07:40:12 PM 36.8127 -85.7473 162° South 455 524 41,000  Level FlightAware ADS-B
Mon 07:40:42 PM 36.7530 -85.7209 160° South 454 522 41,000  Level FlightAware ADS-B
Mon 07:41:12 PM 36.6933 -85.6946 161° South 454 522 41,000  Level FlightAware ADS-B
Mon 07:41:43 PM 36.6332 -85.6680 160° South 456 525 41,000  Level FlightAware ADS-B
Mon 07:42:13 PM 36.5760 -85.6430 161° South 459 528 41,000  Level FlightAware ADS-B
Mon 07:42:16 PM 36.5667 -85.6387 160° South 460 529 41,000  Level FlightAware ADS-B
Mon 07:42:46 PM 36.5065 -85.6122 161° South 461 531 41,000  Level FlightAware ADS-B
Mon 07:43:23 PM 36.4326 -85.5802 161° South 461 531 41,000  Level FlightAware ADS-B
Mon 07:43:55 PM 36.3677 -85.5521 161° South 460 529 41,000  Level FlightAware ADS-B
Mon 07:44:25 PM 36.3073 -85.5257 161° South 460 529 41,000  Level FlightAware ADS-B
Mon 07:44:55 PM 36.2465 -85.4992 161° South 460 529 41,000  Level FlightAware ADS-B
Mon 07:45:26 PM 36.1857 -85.4728 161° South 460 529 41,000  Level FlightAware ADS-B
Mon 07:45:56 PM 36.1253 -85.4465 161° South 460 529 41,000  Level FlightAware ADS-B
Mon 07:46:26 PM 36.0651 -85.4204 161° South 460 529 41,000  Level FlightAware ADS-B
Mon 07:47:09 PM 35.9783 -85.3830 161° South 460 529 41,000  Level FlightAware ADS-B
Mon 07:47:39 PM 35.9173 -85.3567 161° South 460 529 41,000  Level FlightAware ADS-B
Mon 07:48:11 PM 35.8535 -85.3293 161° South 461 531 41,000  Level FlightAware ADS-B
Mon 07:48:49 PM 35.7780 -85.2967 161° South 461 531 41,000  Level FlightAware ADS-B
Mon 07:49:20 PM 35.7138 -85.2690 161° South 462 532 41,000  Level FlightAware ADS-B
Mon 07:49:51 PM 35.6524 -85.2427 161° South 462 532 41,000  Level FlightAware ADS-B
Mon 07:50:21 PM 35.5910 -85.2164 161° South 463 533 41,000  Level FlightAware ADS-B
Mon 07:50:51 PM 35.5302 -85.1904 161° South 462 532 41,000  Level FlightAware ADS-B
Mon 07:51:23 PM 35.4660 -85.1632 161° South 463 533 41,000  Level FlightAware ADS-B
Mon 07:51:54 PM 35.4046 -85.1371 161° South 461 531 41,000  Level FlightAware ADS-B
Mon 07:52:24 PM 35.3439 -85.1116 161° South 460 529 41,000  Level FlightAware ADS-B
Mon 07:52:54 PM 35.2828 -85.0856 161° South 460 529 41,000  Level FlightAware ADS-B
Mon 07:53:25 PM 35.2212 -85.0595 161° South 459 528 41,000  Level FlightAware ADS-B
Mon 07:53:55 PM 35.1603 -85.0337 161° South 458 527 41,000  Level FlightAware ADS-B
Mon 07:54:25 PM 35.0996 -85.0080 161° South 458 527 41,000  Level FlightAware ADS-B
Mon 07:54:57 PM 35.0363 -84.9812 161° South 457 526 41,000  Level FlightAware ADS-B
Mon 07:55:29 PM 34.9730 -84.9545 161° South 456 525 41,000  Level FlightAware ADS-B
Mon 07:55:59 PM 34.9129 -84.9294 161° South 455 524 41,000  Level FlightAware ADS-B
Mon 07:56:53 PM 34.8120 -84.8870 161° South 453 521 41,000  Level FlightAware ADS-B
Mon 07:57:38 PM 34.7260 -84.8510 161° South 453 521 41,000  Level FlightAware ADS-B
Mon 07:58:18 PM 34.6480 -84.8190 161° South 452 520 41,000  Level FlightAware ADS-B
Mon 08:00:53 PM 34.3400 -84.6910 161° South 456 525 41,000  Level FlightAware ADS-B
Mon 08:01:11 PM 34.2928 -84.6714 161° South 457 526 41,000  Level FlightAware ADS-B
Mon 08:01:43 PM 34.2290 -84.6449 161° South 458 527 41,000  Level FlightAware ADS-B
Mon 08:02:15 PM 34.1643 -84.6182 161° South 458 527 41,000  Level FlightAware ADS-B
Mon 08:02:48 PM 34.0977 -84.5909 161° South 458 527 41,000  Level FlightAware ADS-B
Mon 08:03:43 PM 33.9910 -84.5470 161° South 457 526 41,000  Level FlightAware ADS-B
Mon 08:04:23 PM 33.9110 -84.5140 161° South 457 526 41,000  Level FlightAware ADS-B
Mon 08:05:03 PM 33.8350 -84.4830 161° South 463 533 41,000  Level FlightAware ADS-B
Mon 08:05:48 PM 33.7410 -84.4440 161° South 463 533 41,000  Level FlightAware ADS-B
Mon 08:06:23 PM 33.6720 -84.4160 161° South 456 525 41,000  Level FlightAware ADS-B
Mon 08:06:59 PM 33.5883 -84.3822 161° South 461 531 41,000  Level FlightAware ADS-B
Mon 08:07:44 PM 33.4976 -84.3456 161° South 460 529 41,000  Level FlightAware ADS-B
Mon 08:08:17 PM 33.4308 -84.3188 161° South 460 529 41,000  Level FlightAware ADS-B
Mon 08:08:49 PM 33.3652 -84.2926 162° South 460 529 41,000  Level FlightAware ADS-B
Mon 08:09:31 PM 33.2807 -84.2585 161° South 460 529 41,000  Level FlightAware ADS-B
Mon 08:10:02 PM 33.2196 -84.2337 161° South 460 529 41,000  Level FlightAware ADS-B
Mon 08:10:33 PM 33.1566 -84.2082 161° South 459 528 41,000  Level FlightAware ADS-B
Mon 08:11:23 PM 33.0620 -84.1700 161° South 459 528 41,000  Level FlightAware ADS-B
Mon 08:12:03 PM 32.9790 -84.1380 162° South 457 526 41,000  Level FlightAware ADS-B
Mon 08:12:48 PM 32.8900 -84.1020 161° South 453 521 41,000  Level FlightAware ADS-B
Mon 08:13:28 PM 32.8150 -84.0720 161° South 453 521 41,000  Level FlightAware ADS-B
Mon 08:14:03 PM 32.7510 -84.0450 160° South 453 521 41,000  Level FlightAware ADS-B
Mon 08:14:53 PM 32.6670 -84.0110 161° South 453 521 41,000  Level FlightAware ADS-B
Mon 08:15:33 PM 32.5990 -83.9830 161° South 453 521 41,000  Level FlightAware ADS-B
Mon 08:16:13 PM 32.5320 -83.9560 161° South 453 521 41,000  Level FlightAware ADS-B
Mon 08:16:53 PM 32.4650 -83.9280 161° South 453 521 41,000  Level FlightAware ADS-B
Mon 08:17:33 PM 32.3970 -83.9010 161° South 453 521 41,000  Level FlightAware ADS-B
Mon 08:18:23 PM 32.3130 -83.8670 161° South 453 521 41,000  Level FlightAware ADS-B
Mon 08:19:03 PM 32.2460 -83.8390 161° South 453 521 41,000  Level FlightAware ADS-B
Mon 08:19:43 PM 32.1780 -83.8120 161° South 453 521 41,000  Level FlightAware ADS-B
Mon 08:20:23 PM 32.1110 -83.7840 161° South 453 521 41,000  Level FlightAware ADS-B
Mon 08:21:03 PM 32.0440 -83.7570 161° South 453 521 41,000  Level FlightAware ADS-B
Mon 08:21:53 PM 31.9590 -83.7230 161° South 453 521 41,000  Level FlightAware ADS-B
Mon 08:22:33 PM 31.8920 -83.6950 160° South 453 521 41,000  Level FlightAware ADS-B
Mon 08:23:13 PM 31.8250 -83.6680 161° South 453 521 41,000  Level FlightAware ADS-B
Mon 08:26:18 PM 31.2710 -83.4680 163° South 462 532 41,000  Level FlightAware ADS-B
Mon 08:26:58 PM 31.1850 -83.4340 161° South 461 531 41,000  Level FlightAware ADS-B
Mon 08:27:48 PM 31.0880 -83.3960 161° South 461 531 41,000  Level FlightAware ADS-B
Mon 08:28:38 PM 31.0710 -83.3890 161° South 460 529 41,000  Level FlightAware ADS-B
Mon 08:29:18 PM 30.8990 -83.3250 162° South 459 528 41,000  Level FlightAware ADS-B
Mon 08:30:13 PM 30.7980 -83.2850 161° South 458 527 41,000  Level FlightAware ADS-B
Mon 08:30:58 PM 30.7000 -83.2390 158° South 464 534 41,000  Level FlightAware ADS-B
Mon 08:31:33 PM 30.6380 -83.2080 157° South 464 534 41,000  Level FlightAware ADS-B
Mon 08:32:08 PM 30.5630 -83.1710 157° South 467 537 41,000  Level FlightAware ADS-B
Mon 08:33:08 PM 30.4520 -83.1140 156° South 467 537 41,000  Level FlightAware ADS-B
Mon 08:33:48 PM 30.3850 -83.0800 156° South 467 537 41,000  Level FlightAware ADS-B
Mon 08:34:33 PM 30.5160 -83.1470 336° Northwest 469 540 41,000  Level FlightAware ADS-B
Mon 08:35:53 PM 30.4350 -83.1060 156° South 469 540 41,000  Level FlightAware ADS-B
Mon 08:36:33 PM 30.3680 -83.0710 156° South 469 540 41,000  Level FlightAware ADS-B
Mon 08:37:23 PM 30.4520 -83.1140 336° Northwest 468 539 41,000  Level FlightAware ADS-B
Mon 08:38:03 PM 30.3850 -83.0800 156° South 468 539 41,000  Level FlightAware ADS-B
Mon 08:38:43 PM 29.7700 -82.7770 157° South 462 532 41,000  Level FlightAware ADS-B
Mon 08:39:28 PM 29.6860 -82.7350 157° South 461 531 41,000  Level FlightAware ADS-B
Mon 08:40:08 PM 29.6030 -82.6980 159° South 457 526 41,000  Level FlightAware ADS-B
Mon 08:40:48 PM 29.5290 -82.6850 171° South 449 517 41,000  Level FlightAware ADS-B
Mon 08:41:33 PM 29.4350 -82.6750 175° South 449 517 41,000  Level FlightAware ADS-B
Mon 08:42:13 PM 29.3530 -82.6660 175° South 449 517 41,000  Level FlightAware ADS-B
Mon 08:42:58 PM 29.2580 -82.6550 174° South 450 518 41,000  Level FlightAware ADS-B
Mon 08:43:38 PM 29.1760 -82.6460 175° South 450 518 41,000  Level FlightAware ADS-B
Mon 08:44:23 PM 29.0820 -82.6350 174° South 450 518 41,000  Level FlightAware ADS-B
Mon 08:45:03 PM 28.9980 -82.6260 175° South 450 518 41,000  Level FlightAware ADS-B
Mon 08:45:48 PM 28.9060 -82.6160 175° South 450 518 41,000  Level FlightAware ADS-B
Mon 08:46:28 PM 28.8220 -82.6070 175° South 450 518 41,000  Level FlightAware ADS-B
Mon 08:47:13 PM 28.7210 -82.5950 174° South 450 518 41,000  Level FlightAware ADS-B
Mon 08:47:53 PM 28.6410 -82.5870 175° South 451 519 41,000  Level FlightAware ADS-B
Mon 08:48:38 PM 28.5460 -82.5760 174° South 450 518 41,000  Level FlightAware ADS-B
Mon 08:49:18 PM 28.4610 -82.5670 175° South 452 520 41,000  Level FlightAware ADS-B
Mon 08:50:03 PM 28.3690 -82.5570 175° South 453 521 41,000  Level FlightAware ADS-B
Mon 08:50:43 PM 28.2900 -82.5480 174° South 452 520 41,000  Level FlightAware ADS-B
Mon 08:51:23 PM 28.2040 -82.5390 175° South 451 519 41,000  Level FlightAware ADS-B
Mon 08:52:08 PM 28.1080 -82.5290 175° South 449 517 41,000  Level FlightAware ADS-B
Mon 08:52:48 PM 28.0240 -82.5200 175° South 448 516 41,000  Level FlightAware ADS-B
Mon 08:53:28 PM 27.9410 -82.5050 171° South 456 525 41,000  Level FlightAware ADS-B
Mon 08:54:13 PM 27.8530 -82.4730 162° South 461 531 41,000  Level FlightAware ADS-B
Mon 08:54:53 PM 27.7710 -82.4430 162° South 460 529 41,000 -565 Level FlightAware ADS-B
Mon 08:55:38 PM 27.6770 -82.4080 162° South 461 531 40,200 -1,341 Descending FlightAware ADS-B
Mon 08:56:18 PM 27.5960 -82.3790 162° South 457 526 39,100 -1,650 Descending FlightAware ADS-B
Mon 08:56:58 PM 27.5180 -82.3400 156° South 472 543 38,000 -1,835 Descending FlightAware ADS-B
Mon 08:57:43 PM 27.4390 -82.2780 145° Southeast 486 559 36,500 -2,047 Descending FlightAware ADS-B
Mon 08:58:23 PM 27.3660 -82.2170 143° Southeast 486 559 35,100 -2,188 Descending FlightAware ADS-B
Mon 08:59:08 PM 27.2840 -82.1490 144° Southeast 486 559 33,400 -2,188 Descending FlightAware ADS-B
Mon 08:59:48 PM 27.2110 -82.0880 143° Southeast 489 563 32,000 -2,025 Descending FlightAware ADS-B
Mon 09:00:28 PM 27.1370 -82.0250 143° Southeast 494 568 30,700 -2,025 Descending FlightAware ADS-B
Mon 09:01:08 PM 27.0640 -81.9660 144° Southeast 497 572 29,300 -2,047 Descending FlightAware ADS-B
Mon 09:01:53 PM 26.9820 -81.8990 144° Southeast 499 574 27,800 -2,160 Descending FlightAware ADS-B
Mon 09:02:48 PM 26.8790 -81.8150 144° Southeast 501 577 25,700 -2,340 Descending FlightAware ADS-B
Mon 09:03:33 PM 26.7940 -81.7460 144° Southeast 486 559 23,900 -2,471 Descending FlightAware ADS-B
Mon 09:04:13 PM 26.7220 -81.6880 144° Southeast 468 539 22,200 -1,360 Descending FlightAware ADS-B
Mon 09:04:48 PM 26.6690 -81.6430 143° Southeast 468 539 22,200  Level FlightAware ADS-B
Mon 09:05:38 PM 26.5950 -81.5810 143° Southeast 468 539 22,200  Level FlightAware ADS-B
Mon 09:06:18 PM 26.5360 -81.5310 143° Southeast 468 539 22,200  Level FlightAware ADS-B
Mon 09:06:58 PM 26.4780 -81.4820 143° Southeast 468 539 22,200  Level FlightAware ADS-B
Mon 09:07:38 PM 26.4190 -81.4320 143° Southeast 468 539 22,200 -2,652 Level FlightAware ADS-B
Mon 09:12:08 PM 26.1500 -81.0360 127° Southeast 283 326 8,500 -2,786 Descending FlightAware ADS-B
Mon 09:12:33 PM 26.1420 -81.0040 106° East 283 326 8,500 -1,527 Level FlightAware ADS-B
Mon 09:13:03 PM 26.1390 -80.9570 94° East 271 312 7,100 -2,200 Descending FlightAware ADS-B
Mon 09:13:33 PM 26.1330 -80.9160 99° East 269 310 6,300 -923 Descending FlightAware ADS-B
Mon 09:14:08 PM 26.1280 -80.8710 97° East 273 314 6,100 -429 Descending FlightAware ADS-B
Mon 09:14:43 PM 26.1200 -80.8200 100° East 276 318 5,800 -212 Descending FlightAware ADS-B
Mon 09:15:33 PM 26.1100 -80.7490 99° East 271 312 5,800  Level FlightAware ADS-B
Mon 09:15:43 PM 26.1090 -80.7390 96° East 271 312 5,800 -324 Level FlightAware ADS-B
Mon 09:18:38 PM 26.0790 -80.5130 98° East 227 261 4,800 -306 Descending FlightAware ADS-B
Mon 09:19:38 PM 26.0780 -80.4440 91° East 220 253 4,600 -375 Descending FlightAware ADS-B
Mon 09:19:58 PM 26.0780 -80.4220 90° East 205 236 4,300 -1,050 Descending FlightAware ADS-B
Mon 09:20:58 PM 26.0780 -80.3640 90° East 174 200 3,200 -952 Descending FlightAware ADS-B
Mon 09:22:23 PM 26.0780 -80.2900 90° East 166 191 2,000 -857 Descending FlightAware ADS-B
Mon 09:23:18 PM 26.0770 -80.2450 91° East 152 175 1,200 -831 Descending FlightAware ADS-B
Mon 09:23:28 PM 26.0770 -80.2380 90° East 145 167 1,100 -436 Descending FlightAware ADS-B
Mon 09:24:13 PM 26.0780 -80.2070 88° East 128 147 800 -568 Descending FlightAware ADS-B
Mon 09:25:03 PM 26.0770 -80.1740 92° East 127 146 200 -720 Descending FlightAware ADS-B

Login

Don't have an account? Register now (free) for customized features, flight alerts, and more!